Portada
METAR-TAF:

METAR-TAF

Aeropuertos :

Hafar Al-Batin, Arabia Saudita

latitud: 27-54N, longitud: 045-32E, altitud: 413 m

METAR: falta

Hora: 14:43 (11:43 UTC)

Pronóstico

El informe se hizo hace 6 horas y 43 minutos, a las 05:00 UTC
Pronóstico válido del 16 a las 06 UTC al 16 a las 20 UTC
Viento 16 kt del norte-noreste
Visibilidad: 6000 m
Escasas nubes a una altura de 4000 ft
Evolucionando progresivamente
del 16 a las 18 UTC al 16 a las 20 UTC
Viento 6 kt del oeste-noroeste

TAF: OEKK 160500Z 1606/1620 02016KT 6000 FEW040 BECMG 1618/1620 30006KT

Observaciones y pronósticos meteorológicos de más de 4000 aeropuertos (mensajes METAR y TAF).

Los puntos amarillos y rojos representan las estaciones disponibles.

Ponga el ratón en el punto deseado para ver el nombre de la estación.

Haga clic para ver las observaciones y los pronósticos meteorológicos.

Para cambiar el mapa : haga clic en los botones verdes con una cruz de color negro para hacer un zoom, en el botón verde con un guión para alejar o en las flechas verdes para mapas adyacentes.


METAR-TAF: